Flight Track Log - Related Links

Times and Time Zones

All times are in EDT time to prevent confusion due to time zone crossing. See the N716SM flight status page for this flight to view local times or setup timezone preferences in your user account.

Time Position Orientation Groundspeed Altitude Reporting Facility
EDT Latitude Longitude Course Direction KTS MPH feet Rate Location/Type
Wed 01:00:45 PM 43.6000 -71.3500 90° East 153 176 3,100  Level KA90
Wed 01:02:00 PM 43.6000 -71.2817 90° East 160 184 5,800 1,721 Climbing Boston Center
Wed 01:03:01 PM 43.5594 -71.3108 208° Southwest 165 190 7,000 1,317 Climbing Boston Center
Wed 01:04:03 PM 43.5114 -71.3506 211° Southwest 196 226 8,500 1,742 Climbing Boston Center
Wed 01:05:05 PM 43.4617 -71.3878 209° Southwest 193 222 10,600 1,790 Climbing Boston Center
Wed 01:06:07 PM 43.4197 -71.4206 210° Southwest 180 207 12,200 1,561 Climbing Boston Center
Wed 01:07:08 PM 43.3714 -71.4592 210° Southwest 182 209 13,800 1,512 Climbing Boston Center
Wed 01:08:10 PM 43.3258 -71.4944 209° Southwest 185 213 15,300 1,452 Climbing Boston Center
Wed 01:09:12 PM 43.2800 -71.5294 209° Southwest 186 214 16,800 1,610 Climbing Boston Center
Wed 01:10:13 PM 43.2314 -71.5669 209° Southwest 186 214 18,600 1,512 Climbing Boston Center
Wed 01:11:15 PM 43.1922 -71.5942 207° Southwest 184 212 19,900 1,306 Climbing Boston Center
Wed 01:12:17 PM 43.1481 -71.6211 204° Southwest 177 204 21,300 1,024 Climbing Boston Center
Wed 01:13:18 PM 43.1022 -71.6489 204° Southwest 180 207 22,000 341 Climbing Boston Center
Wed 01:14:20 PM 43.0358 -71.6911 205° Southwest 219 252 22,000  Level Boston Center
Wed 01:15:22 PM 42.9761 -71.7292 205° Southwest 235 270 22,000  Level Boston Center
Wed 01:16:24 PM 42.9133 -71.7694 205° Southwest 246 283 22,000  Level Boston Center
Wed 01:17:25 PM 42.8486 -71.8067 203° Southwest 248 285 22,000  Level Boston Center
Wed 01:18:27 PM 42.7839 -71.8483 205° Southwest 254 292 22,000  Level Boston Center
Wed 01:19:29 PM 42.7186 -71.8881 204° Southwest 258 297 22,000  Level Boston Center
Wed 01:20:30 PM 42.6539 -71.9294 205° Southwest 256 295 22,000  Level Boston Center
Wed 01:21:32 PM 42.5881 -71.9692 204° Southwest 257 296 22,000  Level Boston Center
Wed 01:22:34 PM 42.5081 -72.0186 204° Southwest 261 300 22,000  Level Boston Center
Wed 01:23:36 PM 42.4408 -72.0586 204° Southwest 261 300 22,000  Level Boston Center
Wed 01:24:37 PM 42.3753 -72.0997 205° Southwest 261 300 22,000  Level Boston Center
Wed 01:25:39 PM 42.3078 -72.1400 204° Southwest 262 302 22,000  Level Boston Center
Wed 01:26:41 PM 42.2403 -72.1800 204° Southwest 262 302 22,000  Level Boston Center
Wed 01:27:43 PM 42.1731 -72.2217 205° Southwest 262 302 22,000  Level Boston Center
Wed 01:28:44 PM 42.1067 -72.2619 204° Southwest 262 302 22,000  Level Boston Center
Wed 01:29:46 PM 42.0256 -72.3103 204° Southwest 263 303 22,000  Level Boston Center
Wed 01:30:48 PM 41.9578 -72.3517 204° Southwest 263 303 22,000  Level Boston Center
Wed 01:31:50 PM 41.8917 -72.3906 204° Southwest 263 303 22,000  Level Boston Center
Wed 01:32:52 PM 41.8247 -72.4297 204° Southwest 263 303 22,000  Level Boston Center
Wed 01:33:53 PM 41.7583 -72.4694 204° Southwest 263 303 22,000  Level Boston Center
Wed 01:34:55 PM 41.6906 -72.5097 204° Southwest 263 303 22,000  Level Boston Center
Wed 01:35:57 PM 41.6239 -72.5503 204° Southwest 263 303 22,000  Level Boston Center
Wed 01:36:59 PM 41.5567 -72.5892 203° Southwest 263 303 22,000  Level Boston Center
Wed 01:38:00 PM 41.4850 -72.6319 204° Southwest 263 303 22,000  Level Boston Center
Wed 01:39:02 PM 41.4181 -72.6703 203° Southwest 263 303 22,000  Level Boston Center
Wed 01:40:04 PM 41.3389 -72.7169 204° Southwest 263 303 22,000  Level Boston Center
Wed 01:41:06 PM 41.2728 -72.7569 204° Southwest 262 302 22,000  Level Boston Center
Wed 01:42:07 PM 41.2075 -72.7792 194° South 262 302 22,000  Level Boston Center
Wed 01:43:09 PM 41.1356 -72.7981 191° South 262 302 22,000  Level Boston Center
Wed 01:44:11 PM 41.0650 -72.8186 192° South 262 302 22,000  Level Boston Center
Wed 01:45:12 PM 40.9800 -72.8422 192° South 262 302 22,000 -293 Level Boston Center
Wed 01:46:14 PM 40.9111 -72.8742 199° South 263 303 21,400 -878 Descending Boston Center
Wed 01:47:15 PM 40.8397 -72.9242 208° Southwest 286 329 20,200 -1,122 Descending Boston Center
Wed 01:48:17 PM 40.7678 -72.9731 207° Southwest 291 335 19,100 -871 Descending Boston Center
Wed 01:49:19 PM 40.7028 -73.0167 207° Southwest 270 311 18,400 -976 Descending Boston Center
Wed 01:50:20 PM 40.6439 -73.0561 207° Southwest 245 282 17,100 -1,171 Descending Boston Center
Wed 01:51:22 PM 40.5833 -73.0953 206° Southwest 244 281 16,000 -532 Descending Boston Center
Wed 01:52:24 PM 40.5058 -73.1461 207° Southwest 256 295 16,000  Level Boston Center
Wed 01:53:25 PM 40.4403 -73.1892 207° Southwest 260 299 16,000  Level Boston Center
Wed 01:54:27 PM 40.3753 -73.2322 207° Southwest 260 299 16,000 -537 Level Boston Center
Wed 01:55:28 PM 40.3114 -73.2756 207° Southwest 261 300 14,900 -1,171 Descending Boston Center
Wed 01:56:30 PM 40.2456 -73.3183 206° Southwest 261 300 13,600 -1,403 Descending Boston Center
Wed 01:57:32 PM 40.1811 -73.3619 207° Southwest 262 302 12,000 -1,902 Descending Boston Center
Wed 01:58:33 PM 40.1192 -73.4031 207° Southwest 251 289 9,700 -2,244 Descending Boston Center
Wed 01:59:35 PM 40.0575 -73.4456 208° Southwest 251 289 7,400 -2,098 Descending Boston Center
Wed 02:00:36 PM 40.0486 -73.5569 264° West 255 293 5,400 -1,774 Descending Boston Center
Wed 02:01:30 PM 40.0392 -73.6394 262° West 256 295 4,000 -724 Descending New York Center
Wed 02:02:32 PM 40.0267 -73.7283 260° West 256 295 4,000 -49 Level New York Center
Wed 02:03:33 PM 40.0306 -73.8153 273° West 251 289 3,900  Descending New York Center
Wed 02:04:32 PM 40.0556 -73.9003 291° West 251 289 4,000 51 Climbing New York Center
Wed 02:05:31 PM 40.0761 -73.9856 288° West 251 289 4,000  Level New York Center
Wed 02:06:34 PM 40.0947 -74.0622 288° West 251 289 4,000  Level New York Center
Wed 02:07:33 PM 40.1028 -74.1522 277° West 251 289 4,000 -250 Level New York Center
Wed 02:08:34 PM 40.0997 -74.2497 268° West 246 283 3,500 -303 Descending New York Center
Wed 02:09:32 PM 40.0992 -74.3419 270° West 251 289 3,400 -50 Descending New York Center
Wed 02:10:33 PM 40.0967 -74.4233 268° West 251 289 3,400  Level New York Center
Wed 02:11:34 PM 40.0939 -74.5100 268° West 251 289 3,400  Level New York Center
Wed 02:12:32 PM 40.0931 -74.5994 269° West 251 289 3,400  Level New York Center
Wed 02:13:33 PM 40.0900 -74.6969 268° West 251 289 3,400 49 Level New York Center
Wed 02:14:34 PM 40.0869 -74.7864 267° West 251 289 3,500 50 Climbing New York Center
Wed 02:15:34 PM 40.0839 -74.8731 267° West 251 289 3,500  Level New York Center
Wed 02:17:00 PM 40.0673 -74.9953 260° West  Level FlightAware Approximate
Wed 02:24:00 PM 40.0667 -75.0000 261° West  Level FlightAware Approximate
Wed 02:25:00 PM 40.0819 -75.0106 180° South  Level Estimated
Wed 02:26:00 PM 40.0819 -75.0106 261° West  Level Estimated
Wed 02:27:00 PM 40.0819 -75.0106 152° Southeast  Level Estimated
Wed 02:28:00 PM 40.0819 -75.0106 261° West  Level Estimated
Wed 02:29:00 PM 40.0819 -75.0106 152° Southeast  Level Estimated
Wed 02:30:00 PM 40.0819 -75.0106 261° West  Level Estimated
Wed 02:31:00 PM 40.0819 -75.0106 152° Southeast  Level Estimated
Wed 02:32:00 PM 40.0819 -75.0106 261° West  Level Estimated
Wed 02:33:00 PM 40.0819 -75.0106 152° Southeast  Level Estimated

Login

Don't have an account? Register now (free) for customized features, flight alerts, and more!